sensor_id;sensor_type;location;lat;lon;timestamp;pressure;altitude;pressure_sealevel;temperature;humidity
29383;BME280;16365;51.598;7.668;2023-04-24T00:02:23;99418.28;;;18.95;39.09
29383;BME280;16365;51.598;7.668;2023-04-24T00:04:50;99415.06;;;18.93;39.12
29383;BME280;16365;51.598;7.668;2023-04-24T00:07:17;99418.69;;;18.90;39.13
29383;BME280;16365;51.598;7.668;2023-04-24T00:09:43;99415.50;;;18.88;38.88
29383;BME280;16365;51.598;7.668;2023-04-24T00:12:10;99413.94;;;18.87;39.43
29383;BME280;16365;51.598;7.668;2023-04-24T00:14:37;99415.53;;;18.85;38.93
29383;BME280;16365;51.598;7.668;2023-04-24T00:17:04;99414.75;;;18.84;39.46
29383;BME280;16365;51.598;7.668;2023-04-24T00:19:32;99416.75;;;18.84;39.11
29383;BME280;16365;51.598;7.668;2023-04-24T00:21:58;99415.97;;;18.83;39.46
29383;BME280;16365;51.598;7.668;2023-04-24T00:24:25;99413.59;;;18.82;39.44
29383;BME280;16365;51.598;7.668;2023-04-24T00:26:51;99410.78;;;18.82;39.55
29383;BME280;16365;51.598;7.668;2023-04-24T00:29:18;99411.16;;;18.80;39.43
29383;BME280;16365;51.598;7.668;2023-04-24T00:31:45;99413.59;;;18.78;39.33
29383;BME280;16365;51.598;7.668;2023-04-24T00:34:11;99424.03;;;18.78;39.63
29383;BME280;16365;51.598;7.668;2023-04-24T00:36:38;99413.63;;;18.74;39.60
29383;BME280;16365;51.598;7.668;2023-04-24T00:39:05;99414.06;;;18.73;39.37
29383;BME280;16365;51.598;7.668;2023-04-24T00:41:32;99410.47;;;18.69;39.89
29383;BME280;16365;51.598;7.668;2023-04-24T00:43:58;99422.09;;;18.67;39.70
29383;BME280;16365;51.598;7.668;2023-04-24T00:46:25;99416.09;;;18.65;39.21
29383;BME280;16365;51.598;7.668;2023-04-24T00:48:51;99410.91;;;18.64;39.44
29383;BME280;16365;51.598;7.668;2023-04-24T00:51:18;99406.91;;;18.61;39.93
29383;BME280;16365;51.598;7.668;2023-04-24T00:53:44;99411.31;;;18.62;39.58
29383;BME280;16365;51.598;7.668;2023-04-24T00:56:12;99416.13;;;18.62;39.36
29383;BME280;16365;51.598;7.668;2023-04-24T00:58:39;99396.88;;;18.60;39.21
29383;BME280;16365;51.598;7.668;2023-04-24T01:01:06;99398.53;;;18.58;39.21
29383;BME280;16365;51.598;7.668;2023-04-24T01:03:33;99400.56;;;18.54;39.12
29383;BME280;16365;51.598;7.668;2023-04-24T01:06:04;99400.16;;;18.52;39.29
29383;BME280;16365;51.598;7.668;2023-04-24T01:08:31;99396.19;;;18.49;39.33
29383;BME280;16365;51.598;7.668;2023-04-24T01:10:58;99401.38;;;18.50;39.45
29383;BME280;16365;51.598;7.668;2023-04-24T01:13:25;99397.41;;;18.48;39.38
29383;BME280;16365;51.598;7.668;2023-04-24T01:15:51;99399.03;;;18.45;39.72
29383;BME280;16365;51.598;7.668;2023-04-24T01:18:18;99404.63;;;18.45;39.49
29383;BME280;16365;51.598;7.668;2023-04-24T01:20:45;99397.06;;;18.42;39.30
29383;BME280;16365;51.598;7.668;2023-04-24T01:23:13;99401.44;;;18.43;39.43
29383;BME280;16365;51.598;7.668;2023-04-24T01:25:39;99403.47;;;18.43;39.42
29383;BME280;16365;51.598;7.668;2023-04-24T01:28:06;99399.88;;;18.42;39.31
29383;BME280;16365;51.598;7.668;2023-04-24T01:30:33;99399.47;;;18.40;39.20
29383;BME280;16365;51.598;7.668;2023-04-24T01:33:00;99402.28;;;18.37;39.36
29383;BME280;16365;51.598;7.668;2023-04-24T01:35:27;99416.75;;;18.35;39.20
29383;BME280;16365;51.598;7.668;2023-04-24T01:37:54;99410.75;;;18.33;38.91
29383;BME280;16365;51.598;7.668;2023-04-24T01:40:20;99405.16;;;18.30;39.07
29383;BME280;16365;51.598;7.668;2023-04-24T01:42:47;99406.78;;;18.27;38.84
29383;BME280;16365;51.598;7.668;2023-04-24T01:45:14;99400.81;;;18.21;38.44
29383;BME280;16365;51.598;7.668;2023-04-24T01:47:40;99404.44;;;18.18;38.73
29383;BME280;16365;51.598;7.668;2023-04-24T01:50:08;99394.84;;;18.16;38.81
29383;BME280;16365;51.598;7.668;2023-04-24T01:52:34;99394.47;;;18.14;38.89
29383;BME280;16365;51.598;7.668;2023-04-24T01:55:03;99391.69;;;18.10;38.64
29383;BME280;16365;51.598;7.668;2023-04-24T01:57:31;99391.25;;;18.12;38.97
29383;BME280;16365;51.598;7.668;2023-04-24T01:59:57;99389.25;;;18.12;38.64
29383;BME280;16365;51.598;7.668;2023-04-24T02:02:24;99395.66;;;18.13;39.06
29383;BME280;16365;51.598;7.668;2023-04-24T02:04:53;99390.44;;;18.15;39.27
29383;BME280;16365;51.598;7.668;2023-04-24T02:07:20;99394.84;;;18.16;39.27
29383;BME280;16365;51.598;7.668;2023-04-24T02:09:47;99393.22;;;18.18;38.99
29383;BME280;16365;51.598;7.668;2023-04-24T02:12:14;99396.84;;;18.19;39.33
29383;BME280;16365;51.598;7.668;2023-04-24T02:14:41;99395.63;;;18.20;39.21
29383;BME280;16365;51.598;7.668;2023-04-24T02:17:09;99395.63;;;18.20;39.25
29383;BME280;16365;51.598;7.668;2023-04-24T02:19:35;99412.44;;;18.20;38.64
29383;BME280;16365;51.598;7.668;2023-04-24T02:22:02;99406.84;;;18.20;38.95
29383;BME280;16365;51.598;7.668;2023-04-24T02:24:28;99397.19;;;18.21;38.77
29383;BME280;16365;51.598;7.668;2023-04-24T02:26:55;99397.19;;;18.21;38.75
29383;BME280;16365;51.598;7.668;2023-04-24T02:29:22;99400.00;;;18.21;38.87
29383;BME280;16365;51.598;7.668;2023-04-24T02:31:49;99408.06;;;18.19;38.96
29383;BME280;16365;51.598;7.668;2023-04-24T02:34:15;99406.03;;;18.19;38.82
29383;BME280;16365;51.598;7.668;2023-04-24T02:36:42;99412.88;;;18.18;38.77
29383;BME280;16365;51.598;7.668;2023-04-24T02:39:09;99415.69;;;18.18;39.33
29383;BME280;16365;51.598;7.668;2023-04-24T02:41:35;99417.25;;;18.19;39.05
29383;BME280;16365;51.598;7.668;2023-04-24T02:44:02;99417.25;;;18.19;39.19
29383;BME280;16365;51.598;7.668;2023-04-24T02:46:29;99418.06;;;18.20;39.07
29383;BME280;16365;51.598;7.668;2023-04-24T02:48:56;99419.66;;;18.21;39.47
29383;BME280;16365;51.598;7.668;2023-04-24T02:51:22;99407.63;;;18.20;39.03
29383;BME280;16365;51.598;7.668;2023-04-24T02:53:49;99411.66;;;18.19;39.30
29383;BME280;16365;51.598;7.668;2023-04-24T02:56:15;99414.84;;;18.18;39.55
29383;BME280;16365;51.598;7.668;2023-04-24T02:58:42;99412.88;;;18.15;39.22
29383;BME280;16365;51.598;7.668;2023-04-24T03:01:08;99417.28;;;18.12;39.36
29383;BME280;16365;51.598;7.668;2023-04-24T03:03:38;99409.31;;;18.11;39.42
29383;BME280;16365;51.598;7.668;2023-04-24T03:06:05;99418.94;;;18.10;39.49
29383;BME280;16365;51.598;7.668;2023-04-24T03:08:32;99411.69;;;18.12;39.35
29383;BME280;16365;51.598;7.668;2023-04-24T03:10:58;99410.13;;;18.08;38.74
29383;BME280;16365;51.598;7.668;2023-04-24T03:13:25;99421.75;;;18.03;38.70
29383;BME280;16365;51.598;7.668;2023-04-24T03:15:51;99433.03;;;17.99;39.08
29383;BME280;16365;51.598;7.668;2023-04-24T03:18:18;99420.63;;;17.93;38.77
29383;BME280;16365;51.598;7.668;2023-04-24T03:20:47;99421.09;;;17.84;38.86
29383;BME280;16365;51.598;7.668;2023-04-24T03:23:14;99434.31;;;17.80;38.98
29383;BME280;16365;51.598;7.668;2023-04-24T03:25:41;99434.72;;;17.71;38.92
29383;BME280;16365;51.598;7.668;2023-04-24T03:28:09;99429.97;;;17.65;38.89
29383;BME280;16365;51.598;7.668;2023-04-24T03:30:35;99432.00;;;17.57;39.10
29383;BME280;16365;51.598;7.668;2023-04-24T03:33:02;99428.41;;;17.50;39.37
29383;BME280;16365;51.598;7.668;2023-04-24T03:35:28;99434.84;;;17.43;39.21
29383;BME280;16365;51.598;7.668;2023-04-24T03:37:55;99446.09;;;17.36;39.32
29383;BME280;16365;51.598;7.668;2023-04-24T03:40:21;99439.28;;;17.30;39.78
29383;BME280;16365;51.598;7.668;2023-04-24T03:42:48;99443.28;;;17.25;40.00
29383;BME280;16365;51.598;7.668;2023-04-24T03:45:14;99447.31;;;17.20;39.93
29383;BME280;16365;51.598;7.668;2023-04-24T03:47:41;99460.13;;;17.18;39.86
29383;BME280;16365;51.598;7.668;2023-04-24T03:50:08;99450.53;;;17.15;39.91
29383;BME280;16365;51.598;7.668;2023-04-24T03:52:38;99443.75;;;17.13;40.04
29383;BME280;16365;51.598;7.668;2023-04-24T03:55:04;99447.34;;;17.13;40.41
29383;BME280;16365;51.598;7.668;2023-04-24T03:57:32;99451.34;;;17.12;40.29
29383;BME280;16365;51.598;7.668;2023-04-24T03:59:59;99454.16;;;17.12;40.71
29383;BME280;16365;51.598;7.668;2023-04-24T04:02:26;99453.75;;;17.14;40.13
29383;BME280;16365;51.598;7.668;2023-04-24T04:04:52;99455.75;;;17.13;40.72
29383;BME280;16365;51.598;7.668;2023-04-24T04:07:19;99452.53;;;17.15;40.40
29383;BME280;16365;51.598;7.668;2023-04-24T04:09:45;99457.34;;;17.14;40.61
29383;BME280;16365;51.598;7.668;2023-04-24T04:12:11;99456.13;;;17.15;40.63
29383;BME280;16365;51.598;7.668;2023-04-24T04:14:38;99458.53;;;17.13;40.68
29383;BME280;16365;51.598;7.668;2023-04-24T04:17:05;99466.16;;;17.13;40.82
29383;BME280;16365;51.598;7.668;2023-04-24T04:19:31;99473.34;;;17.14;40.83
29383;BME280;16365;51.598;7.668;2023-04-24T04:21:58;99470.16;;;17.12;40.82
29383;BME280;16365;51.598;7.668;2023-04-24T04:24:25;99474.94;;;17.11;40.60
29383;BME280;16365;51.598;7.668;2023-04-24T04:26:53;99478.16;;;17.13;40.56
29383;BME280;16365;51.598;7.668;2023-04-24T04:29:22;99462.13;;;17.14;41.06
29383;BME280;16365;51.598;7.668;2023-04-24T04:31:50;99472.13;;;17.15;40.68
29383;BME280;16365;51.598;7.668;2023-04-24T04:34:16;99461.72;;;17.15;40.91
29383;BME280;16365;51.598;7.668;2023-04-24T04:36:42;99464.16;;;17.17;41.08
29383;BME280;16365;51.598;7.668;2023-04-24T04:39:10;99467.31;;;17.19;40.65
29383;BME280;16365;51.598;7.668;2023-04-24T04:41:36;99473.72;;;17.19;40.82
29383;BME280;16365;51.598;7.668;2023-04-24T04:44:04;99475.31;;;17.20;40.46
29383;BME280;16365;51.598;7.668;2023-04-24T04:46:31;99482.94;;;17.20;40.66
29383;BME280;16365;51.598;7.668;2023-04-24T04:49:00;99474.53;;;17.20;40.90
29383;BME280;16365;51.598;7.668;2023-04-24T04:51:28;99485.72;;;17.20;40.76
29383;BME280;16365;51.598;7.668;2023-04-24T04:53:54;99476.53;;;17.19;40.53
29383;BME280;16365;51.598;7.668;2023-04-24T04:56:20;99477.72;;;17.18;40.82
29383;BME280;16365;51.598;7.668;2023-04-24T04:58:48;99483.34;;;17.18;41.02
29383;BME280;16365;51.598;7.668;2023-04-24T05:01:14;99474.94;;;17.18;40.58
29383;BME280;16365;51.598;7.668;2023-04-24T05:03:41;99483.34;;;17.18;40.72
29383;BME280;16365;51.598;7.668;2023-04-24T05:06:07;99478.13;;;17.20;40.66
29383;BME280;16365;51.598;7.668;2023-04-24T05:08:34;99480.91;;;17.20;41.04
29383;BME280;16365;51.598;7.668;2023-04-24T05:11:00;99469.34;;;17.22;40.92
29383;BME280;16365;51.598;7.668;2023-04-24T05:13:27;99473.31;;;17.25;40.64
29383;BME280;16365;51.598;7.668;2023-04-24T05:16:06;99478.53;;;17.26;40.50
29383;BME280;16365;51.598;7.668;2023-04-24T05:18:32;99468.91;;;17.27;40.66
29383;BME280;16365;51.598;7.668;2023-04-24T05:20:59;99465.72;;;17.29;40.87
29383;BME280;16365;51.598;7.668;2023-04-24T05:23:25;99458.09;;;17.29;40.36
29383;BME280;16365;51.598;7.668;2023-04-24T05:25:52;99464.91;;;17.28;40.89
29383;BME280;16365;51.598;7.668;2023-04-24T05:28:18;99461.31;;;17.28;40.77
29383;BME280;16365;51.598;7.668;2023-04-24T05:30:44;99455.31;;;17.26;40.77
29383;BME280;16365;51.598;7.668;2023-04-24T05:33:11;99470.13;;;17.23;40.85
29383;BME280;16365;51.598;7.668;2023-04-24T05:35:40;99469.72;;;17.20;40.94
29383;BME280;16365;51.598;7.668;2023-04-24T05:38:12;99468.13;;;17.19;40.46
29383;BME280;16365;51.598;7.668;2023-04-24T05:40:39;99466.53;;;17.18;40.73
29383;BME280;16365;51.598;7.668;2023-04-24T05:43:05;99469.75;;;17.17;40.71
29383;BME280;16365;51.598;7.668;2023-04-24T05:45:32;99476.53;;;17.16;40.93
29383;BME280;16365;51.598;7.668;2023-04-24T05:47:58;99476.13;;;17.14;40.65
29383;BME280;16365;51.598;7.668;2023-04-24T05:50:25;99484.16;;;17.12;40.73
29383;BME280;16365;51.598;7.668;2023-04-24T05:52:51;99470.53;;;17.10;40.55
29383;BME280;16365;51.598;7.668;2023-04-24T05:55:17;99471.34;;;17.11;41.00
29383;BME280;16365;51.598;7.668;2023-04-24T05:57:44;99483.34;;;17.11;40.55
29383;BME280;16365;51.598;7.668;2023-04-24T06:00:12;99475.75;;;17.12;40.70
29383;BME280;16365;51.598;7.668;2023-04-24T06:02:38;99475.75;;;17.12;40.56
29383;BME280;16365;51.598;7.668;2023-04-24T06:05:05;99476.13;;;17.14;41.07
29383;BME280;16365;51.598;7.668;2023-04-24T06:07:32;99477.72;;;17.15;40.89
29383;BME280;16365;51.598;7.668;2023-04-24T06:09:58;99477.72;;;17.15;40.91
29383;BME280;16365;51.598;7.668;2023-04-24T06:12:25;99488.13;;;17.14;41.06
29383;BME280;16365;51.598;7.668;2023-04-24T06:14:52;99487.75;;;17.12;40.58
29383;BME280;16365;51.598;7.668;2023-04-24T06:17:18;99489.34;;;17.13;40.91
29383;BME280;16365;51.598;7.668;2023-04-24T06:19:45;99494.53;;;17.11;40.83
29383;BME280;16365;51.598;7.668;2023-04-24T06:22:12;99494.16;;;17.13;40.84
29383;BME280;16365;51.598;7.668;2023-04-24T06:24:39;99506.94;;;17.14;41.01
29383;BME280;16365;51.598;7.668;2023-04-24T06:27:06;99486.94;;;17.15;41.04
29383;BME280;16365;51.598;7.668;2023-04-24T06:29:34;99502.56;;;17.16;40.85
29383;BME280;16365;51.598;7.668;2023-04-24T06:32:00;99500.94;;;17.15;40.64
29383;BME280;16365;51.598;7.668;2023-04-24T06:34:27;99504.16;;;17.14;41.44
29383;BME280;16365;51.598;7.668;2023-04-24T06:36:54;99503.75;;;17.12;41.14
29383;BME280;16365;51.598;7.668;2023-04-24T06:39:21;99500.56;;;17.10;41.26
29383;BME280;16365;51.598;7.668;2023-04-24T06:41:47;99509.75;;;17.10;41.07
29383;BME280;16365;51.598;7.668;2023-04-24T06:44:14;99513.75;;;17.09;41.60
29383;BME280;16365;51.598;7.668;2023-04-24T06:46:41;99508.16;;;17.09;41.07
29383;BME280;16365;51.598;7.668;2023-04-24T06:49:08;99506.56;;;17.08;41.36
29383;BME280;16365;51.598;7.668;2023-04-24T06:51:35;99512.16;;;17.08;40.86
29383;BME280;16365;51.598;7.668;2023-04-24T06:54:01;99502.16;;;17.07;41.13
29383;BME280;16365;51.598;7.668;2023-04-24T06:56:28;99503.34;;;17.06;41.25
29383;BME280;16365;51.598;7.668;2023-04-24T06:58:55;99505.34;;;17.06;41.45
29383;BME280;16365;51.598;7.668;2023-04-24T07:01:22;99501.75;;;17.05;41.43
29383;BME280;16365;51.598;7.668;2023-04-24T07:03:48;99490.56;;;17.05;41.55
29383;BME280;16365;51.598;7.668;2023-04-24T07:06:15;99510.56;;;17.04;41.33
29383;BME280;16365;51.598;7.668;2023-04-24T07:08:45;99506.97;;;17.03;41.21
29383;BME280;16365;51.598;7.668;2023-04-24T07:11:11;99508.56;;;17.01;41.41
29383;BME280;16365;51.598;7.668;2023-04-24T07:13:38;99500.56;;;16.99;41.31
29383;BME280;16365;51.598;7.668;2023-04-24T07:16:08;99500.97;;;16.98;41.04
29383;BME280;16365;51.598;7.668;2023-04-24T07:18:35;99505.38;;;16.99;41.07
29383;BME280;16365;51.598;7.668;2023-04-24T07:21:02;99504.16;;;17.00;41.22
29383;BME280;16365;51.598;7.668;2023-04-24T07:23:29;99512.56;;;17.03;41.45
29383;BME280;16365;51.598;7.668;2023-04-24T07:25:57;99503.34;;;17.06;41.71
29383;BME280;16365;51.598;7.668;2023-04-24T07:28:24;99497.75;;;17.10;41.19
29383;BME280;16365;51.598;7.668;2023-04-24T07:30:50;99506.94;;;17.14;41.21
29383;BME280;16365;51.598;7.668;2023-04-24T07:33:20;99501.72;;;17.16;41.29
29383;BME280;16365;51.598;7.668;2023-04-24T07:35:46;99513.34;;;17.18;41.59
29383;BME280;16365;51.598;7.668;2023-04-24T07:38:13;99516.16;;;17.18;41.12
29383;BME280;16365;51.598;7.668;2023-04-24T07:40:39;99517.75;;;17.15;41.33
29383;BME280;16365;51.598;7.668;2023-04-24T07:43:06;99523.75;;;17.14;41.36
29383;BME280;16365;51.598;7.668;2023-04-24T07:45:32;99520.94;;;17.14;41.82
29383;BME280;16365;51.598;7.668;2023-04-24T07:48:02;99526.56;;;17.10;41.26
29383;BME280;16365;51.598;7.668;2023-04-24T07:50:29;99518.97;;;17.07;41.37
29383;BME280;16365;51.598;7.668;2023-04-24T07:52:55;99521.34;;;17.05;41.72
29383;BME280;16365;51.598;7.668;2023-04-24T07:55:21;99524.56;;;17.04;41.69
29383;BME280;16365;51.598;7.668;2023-04-24T07:57:51;99529.38;;;17.03;41.38
29383;BME280;16365;51.598;7.668;2023-04-24T08:00:18;99529.38;;;17.03;41.85
29383;BME280;16365;51.598;7.668;2023-04-24T08:02:45;99529.38;;;17.03;41.48
29383;BME280;16365;51.598;7.668;2023-04-24T08:05:11;99529.75;;;17.02;41.87
29383;BME280;16365;51.598;7.668;2023-04-24T08:07:38;99530.97;;;17.01;41.72
29383;BME280;16365;51.598;7.668;2023-04-24T08:10:05;99528.97;;;16.98;41.87
29383;BME280;16365;51.598;7.668;2023-04-24T08:12:32;99526.56;;;16.96;41.83
29383;BME280;16365;51.598;7.668;2023-04-24T08:14:58;99530.56;;;16.95;41.74
29383;BME280;16365;51.598;7.668;2023-04-24T08:17:25;99522.16;;;16.95;41.87
29383;BME280;16365;51.598;7.668;2023-04-24T08:19:53;99518.56;;;16.94;42.11
29383;BME280;16365;51.598;7.668;2023-04-24T08:22:28;99530.56;;;16.95;41.69
29383;BME280;16365;51.598;7.668;2023-04-24T08:24:56;99538.16;;;16.94;41.80
29383;BME280;16365;51.598;7.668;2023-04-24T08:27:23;99539.38;;;16.93;41.99
29383;BME280;16365;51.598;7.668;2023-04-24T08:29:50;99547.78;;;16.93;41.85
29383;BME280;16365;51.598;7.668;2023-04-24T08:32:16;99540.16;;;16.94;42.04
29383;BME280;16365;51.598;7.668;2023-04-24T08:34:43;99545.34;;;16.95;41.84
29383;BME280;16365;51.598;7.668;2023-04-24T08:37:10;99558.16;;;16.96;41.73
29383;BME280;16365;51.598;7.668;2023-04-24T08:39:37;99556.56;;;16.95;41.61
29383;BME280;16365;51.598;7.668;2023-04-24T08:42:05;99560.56;;;16.94;41.44
29383;BME280;16365;51.598;7.668;2023-04-24T08:44:35;99565.38;;;16.94;41.64
29383;BME280;16365;51.598;7.668;2023-04-24T08:47:02;99570.16;;;16.93;41.74
29383;BME280;16365;51.598;7.668;2023-04-24T08:49:29;99576.56;;;16.90;41.96
29383;BME280;16365;51.598;7.668;2023-04-24T08:51:56;99574.16;;;16.89;42.66
29383;BME280;16365;51.598;7.668;2023-04-24T08:54:24;99575.34;;;16.84;42.90
29383;BME280;16365;51.598;7.668;2023-04-24T08:56:53;99581.38;;;16.83;43.16
29383;BME280;16365;51.598;7.668;2023-04-24T08:59:21;99574.16;;;16.78;42.74
29383;BME280;16365;51.598;7.668;2023-04-24T09:01:48;99579.34;;;16.76;42.84
29383;BME280;16365;51.598;7.668;2023-04-24T09:04:19;99578.09;;;16.70;42.95
29383;BME280;16365;51.598;7.668;2023-04-24T09:06:53;99582.47;;;16.67;43.17
29383;BME280;16365;51.598;7.668;2023-04-24T09:09:22;99590.47;;;16.65;43.37
29383;BME280;16365;51.598;7.668;2023-04-24T09:11:50;99587.28;;;16.60;43.10
29383;BME280;16365;51.598;7.668;2023-04-24T09:14:17;99593.66;;;16.57;43.15
29383;BME280;16365;51.598;7.668;2023-04-24T09:16:44;99593.63;;;16.53;43.20
29383;BME280;16365;51.598;7.668;2023-04-24T09:19:11;99589.66;;;16.51;43.11
29383;BME280;16365;51.598;7.668;2023-04-24T09:21:38;99600.81;;;16.47;43.46
29383;BME280;16365;51.598;7.668;2023-04-24T09:24:21;99598.41;;;16.42;44.37
29383;BME280;16365;51.598;7.668;2023-04-24T09:26:58;99603.22;;;16.41;44.01
29383;BME280;16365;51.598;7.668;2023-04-24T09:29:25;99608.41;;;16.43;43.79
29383;BME280;16365;51.598;7.668;2023-04-24T09:31:52;99601.63;;;16.40;43.87
29383;BME280;16365;51.598;7.668;2023-04-24T09:34:25;99610.78;;;16.37;44.19
29383;BME280;16365;51.598;7.668;2023-04-24T09:36:53;99606.00;;;16.38;43.94
29383;BME280;16365;51.598;7.668;2023-04-24T09:39:20;99613.19;;;16.35;43.93
29383;BME280;16365;51.598;7.668;2023-04-24T09:41:52;99621.16;;;16.33;44.52
29383;BME280;16365;51.598;7.668;2023-04-24T09:44:22;99609.97;;;16.33;43.88
29383;BME280;16365;51.598;7.668;2023-04-24T09:46:58;99625.13;;;16.29;44.29
29383;BME280;16365;51.598;7.668;2023-04-24T09:49:32;99625.94;;;16.26;44.94
29383;BME280;16365;51.598;7.668;2023-04-24T09:52:07;99631.91;;;16.24;44.68
29383;BME280;16365;51.598;7.668;2023-04-24T09:54:35;99643.50;;;16.23;44.62
29383;BME280;16365;51.598;7.668;2023-04-24T09:57:07;99637.06;;;16.18;45.16
29383;BME280;16365;51.598;7.668;2023-04-24T09:59:41;99647.06;;;16.16;46.09
29383;BME280;16365;51.598;7.668;2023-04-24T10:02:19;99657.03;;;16.13;45.81
29383;BME280;16365;51.598;7.668;2023-04-24T10:04:56;99662.59;;;16.10;46.11
29383;BME280;16365;51.598;7.668;2023-04-24T10:07:26;99665.00;;;16.11;45.44
29383;BME280;16365;51.598;7.668;2023-04-24T10:09:52;99675.41;;;16.11;45.61
29383;BME280;16365;51.598;7.668;2023-04-24T10:12:19;99681.00;;;16.11;45.66
29383;BME280;16365;51.598;7.668;2023-04-24T10:14:49;99692.94;;;16.08;46.08
29383;BME280;16365;51.598;7.668;2023-04-24T10:17:16;99690.16;;;16.08;46.09
29383;BME280;16365;51.598;7.668;2023-04-24T10:19:43;99691.34;;;16.07;46.06
29383;BME280;16365;51.598;7.668;2023-04-24T10:22:10;99699.75;;;16.07;46.33
29383;BME280;16365;51.598;7.668;2023-04-24T10:24:38;99703.75;;;16.06;47.05
29383;BME280;16365;51.598;7.668;2023-04-24T10:27:05;99704.94;;;16.08;46.92
29383;BME280;16365;51.598;7.668;2023-04-24T10:29:32;99714.56;;;16.11;46.65
29383;BME280;16365;51.598;7.668;2023-04-24T10:32:01;99714.16;;;16.12;46.69
29383;BME280;16365;51.598;7.668;2023-04-24T10:34:28;99715.75;;;16.13;46.53
29383;BME280;16365;51.598;7.668;2023-04-24T10:36:56;99738.13;;;16.13;46.50
29383;BME280;16365;51.598;7.668;2023-04-24T10:39:23;99744.91;;;16.12;45.87
29383;BME280;16365;51.598;7.668;2023-04-24T10:41:54;99738.50;;;16.08;45.97
29383;BME280;16365;51.598;7.668;2023-04-24T10:44:24;99750.84;;;16.04;45.56
29383;BME280;16365;51.598;7.668;2023-04-24T10:46:54;99761.97;;;15.97;45.92
29383;BME280;16365;51.598;7.668;2023-04-24T10:49:28;99777.09;;;15.88;46.34
29383;BME280;16365;51.598;7.668;2023-04-24T10:52:01;99785.41;;;15.81;46.42
29383;BME280;16365;51.598;7.668;2023-04-24T10:54:33;99795.31;;;15.75;46.11
29383;BME280;16365;51.598;7.668;2023-04-24T10:59:46;99821.94;;;15.62;45.80
29383;BME280;16365;51.598;7.668;2023-04-24T11:02:17;99824.66;;;15.55;46.31
29383;BME280;16365;51.598;7.668;2023-04-24T11:04:44;99830.56;;;15.50;45.96
29383;BME280;16365;51.598;7.668;2023-04-24T11:07:14;99835.72;;;15.44;46.34
29383;BME280;16365;51.598;7.668;2023-04-24T11:09:41;99838.84;;;15.39;46.51
29383;BME280;16365;51.598;7.668;2023-04-24T11:12:10;99845.97;;;15.36;46.46
29383;BME280;16365;51.598;7.668;2023-04-24T11:17:36;99852.31;;;15.30;47.95
29383;BME280;16365;51.598;7.668;2023-04-24T11:20:05;99853.91;;;15.31;46.94
29383;BME280;16365;51.598;7.668;2023-04-24T11:22:55;99860.28;;;15.31;46.83
29383;BME280;16365;51.598;7.668;2023-04-24T11:25:23;99855.50;;;15.32;46.96
29383;BME280;16365;51.598;7.668;2023-04-24T11:28:03;99869.44;;;15.28;48.48
29383;BME280;16365;51.598;7.668;2023-04-24T11:30:31;99869.88;;;15.30;47.22
29383;BME280;16365;51.598;7.668;2023-04-24T11:33:02;99875.03;;;15.28;48.59
29383;BME280;16365;51.598;7.668;2023-04-24T11:35:29;99884.63;;;15.31;47.70
29383;BME280;16365;51.598;7.668;2023-04-24T11:37:56;99891.00;;;15.31;47.32
29383;BME280;16365;51.598;7.668;2023-04-24T11:40:27;99892.25;;;15.34;47.53
29383;BME280;16365;51.598;7.668;2023-04-24T11:42:54;99905.03;;;15.35;47.94
29383;BME280;16365;51.598;7.668;2023-04-24T11:45:30;99905.03;;;15.35;48.20
29383;BME280;16365;51.598;7.668;2023-04-24T11:47:57;99919.41;;;15.37;47.46
29383;BME280;16365;51.598;7.668;2023-04-24T11:50:26;99912.66;;;15.38;47.49
29383;BME280;16365;51.598;7.668;2023-04-24T11:52:55;99923.00;;;15.37;47.40
29383;BME280;16365;51.598;7.668;2023-04-24T11:57:50;99930.16;;;15.35;47.75
29383;BME280;16365;51.598;7.668;2023-04-24T12:00:19;99928.97;;;15.36;48.08
29383;BME280;16365;51.598;7.668;2023-04-24T12:02:50;99932.22;;;15.38;48.28
29383;BME280;16365;51.598;7.668;2023-04-24T12:05:27;99929.03;;;15.39;49.36
29383;BME280;16365;51.598;7.668;2023-04-24T12:07:54;99937.88;;;15.45;47.83
29383;BME280;16365;51.598;7.668;2023-04-24T12:10:25;99949.47;;;15.47;48.36
29383;BME280;16365;51.598;7.668;2023-04-24T12:12:54;99953.09;;;15.51;47.75
29383;BME280;16365;51.598;7.668;2023-04-24T12:15:22;99948.75;;;15.54;47.87
29383;BME280;16365;51.598;7.668;2023-04-24T12:17:51;99945.97;;;15.54;48.00
29383;BME280;16365;51.598;7.668;2023-04-24T12:20:30;99948.38;;;15.55;48.17
29383;BME280;16365;51.598;7.668;2023-04-24T12:22:58;99945.19;;;15.57;48.16
29383;BME280;16365;51.598;7.668;2023-04-24T12:25:30;99956.81;;;15.59;48.50
29383;BME280;16365;51.598;7.668;2023-04-24T12:30:43;99956.50;;;15.64;48.91
29383;BME280;16365;51.598;7.668;2023-04-24T12:33:11;99960.56;;;15.70;48.34
29383;BME280;16365;51.598;7.668;2023-04-24T12:35:40;99961.81;;;15.73;48.74
29383;BME280;16365;51.598;7.668;2023-04-24T12:38:15;99971.03;;;15.77;48.67
29383;BME280;16365;51.598;7.668;2023-04-24T12:40:42;99959.13;;;15.83;48.25
29383;BME280;16365;51.598;7.668;2023-04-24T12:43:14;99969.16;;;15.88;48.40
29383;BME280;16365;51.598;7.668;2023-04-24T12:45:41;99976.00;;;15.94;47.78
29383;BME280;16365;51.598;7.668;2023-04-24T12:48:08;99974.47;;;15.97;47.63
29383;BME280;16365;51.598;7.668;2023-04-24T12:50:34;99973.25;;;15.98;47.58
29383;BME280;16365;51.598;7.668;2023-04-24T12:53:01;99975.66;;;15.99;47.33
29383;BME280;16365;51.598;7.668;2023-04-24T12:55:27;99979.69;;;16.02;47.54
29383;BME280;16365;51.598;7.668;2023-04-24T12:57:54;99977.31;;;16.04;47.35
29383;BME280;16365;51.598;7.668;2023-04-24T13:00:21;99984.16;;;16.10;47.11
29383;BME280;16365;51.598;7.668;2023-04-24T13:02:48;99983.00;;;16.14;47.27
29383;BME280;16365;51.598;7.668;2023-04-24T13:05:15;99987.84;;;16.17;46.90
29383;BME280;16365;51.598;7.668;2023-04-24T13:07:42;99979.13;;;16.23;46.64
29383;BME280;16365;51.598;7.668;2023-04-24T13:10:08;99992.34;;;16.26;46.33
29383;BME280;16365;51.598;7.668;2023-04-24T13:12:35;100001.94;;;16.28;46.07
29383;BME280;16365;51.598;7.668;2023-04-24T13:15:03;99994.34;;;16.29;45.87